createdAt,value
2023-02-25T00:00:17.588Z,76.00
2023-02-25T00:03:20.804Z,76.20
2023-02-25T00:06:25.068Z,76.50
2023-02-25T00:09:28.483Z,76.90
2023-02-25T00:12:33.063Z,77.10
2023-02-25T00:15:36.034Z,77.20
2023-02-25T00:18:40.898Z,77.20
2023-02-25T00:21:43.909Z,77.30
2023-02-25T00:24:46.984Z,77.50
2023-02-25T00:27:51.432Z,77.50
2023-02-25T00:30:54.717Z,76.80
2023-02-25T00:33:57.733Z,75.00
2023-02-25T00:37:00.862Z,76.10
2023-02-25T00:40:05.024Z,76.50
2023-02-25T00:43:15.351Z,77.10
2023-02-25T00:46:18.643Z,77.50
2023-02-25T00:49:32.210Z,78.10
2023-02-25T00:52:35.958Z,78.20
2023-02-25T00:55:39.894Z,78.40
2023-02-25T00:58:45.454Z,78.50
2023-02-25T01:01:48.887Z,78.70
2023-02-25T01:04:52.117Z,79.00
2023-02-25T01:07:55.295Z,79.10
2023-02-25T01:10:58.368Z,79.30
2023-02-25T01:14:05.214Z,79.50
2023-02-25T01:17:09.703Z,79.50
2023-02-25T01:20:13.351Z,79.60
2023-02-25T01:23:16.461Z,79.70
2023-02-25T01:26:19.690Z,79.40
2023-02-25T01:29:26.586Z,79.50
2023-02-25T01:32:29.829Z,79.50
2023-02-25T01:35:32.978Z,79.20
2023-02-25T01:38:36.199Z,79.10
2023-02-25T01:41:40.296Z,79.20
2023-02-25T01:45:17.549Z,79.10
2023-02-25T01:48:25.037Z,79.00
2023-02-25T01:51:28.954Z,79.10
2023-02-25T01:54:33.237Z,79.20
2023-02-25T01:57:36.867Z,79.20
2023-02-25T02:00:40.335Z,79.10
2023-02-25T02:03:45.025Z,79.10
2023-02-25T02:06:50.544Z,79.10
2023-02-25T02:09:56.919Z,78.80
2023-02-25T02:13:00.123Z,78.60
2023-02-25T02:16:26.689Z,78.40
2023-02-25T02:19:44.390Z,78.20
2023-02-25T02:22:59.104Z,77.90
2023-02-25T02:26:35.348Z,77.60
2023-02-25T02:30:03.832Z,77.60
2023-02-25T02:33:15.091Z,77.50
2023-02-25T02:36:26.528Z,76.90
2023-02-25T02:39:44.610Z,76.70
2023-02-25T02:43:05.571Z,76.50
2023-02-25T02:46:15.749Z,76.20
2023-02-25T02:49:26.878Z,76.20
2023-02-25T02:52:32.761Z,76.40
2023-02-25T02:55:41.148Z,76.10
2023-02-25T02:58:48.338Z,76.30
2023-02-25T03:01:55.037Z,76.10
2023-02-25T03:05:02.916Z,76.40
2023-02-25T03:08:11.003Z,76.30
2023-02-25T03:11:14.842Z,76.70
2023-02-25T03:14:18.406Z,76.60
2023-02-25T03:17:24.940Z,76.80
2023-02-25T03:20:34.794Z,76.90
2023-02-25T03:23:41.793Z,76.90
2023-02-25T03:26:44.773Z,77.00
2023-02-25T03:29:47.932Z,77.20
2023-02-25T03:32:54.938Z,77.40
2023-02-25T03:36:00.756Z,77.50
2023-02-25T03:39:09.749Z,77.30
2023-02-25T03:42:18.222Z,77.10
2023-02-25T03:45:22.824Z,77.50
2023-02-25T03:48:27.344Z,77.50
2023-02-25T03:51:36.795Z,77.50
2023-02-25T03:54:39.904Z,77.40
2023-02-25T03:57:45.107Z,77.60
2023-02-25T04:00:52.024Z,77.40
2023-02-25T04:03:55.149Z,77.30
2023-02-25T04:06:59.965Z,77.20
2023-02-25T04:10:03.196Z,76.90
2023-02-25T04:13:06.724Z,77.00
2023-02-25T04:16:09.887Z,76.80
2023-02-25T04:19:12.923Z,76.60
2023-02-25T04:22:17.427Z,76.60
2023-02-25T04:25:20.485Z,76.70
2023-02-25T04:28:23.422Z,76.60
2023-02-25T04:31:30.681Z,76.60
2023-02-25T04:34:33.654Z,76.70
2023-02-25T04:37:38.149Z,76.70
2023-02-25T04:40:41.315Z,76.70
2023-02-25T04:43:45.418Z,77.00
2023-02-25T04:46:51.711Z,76.80
2023-02-25T04:49:54.899Z,76.90
2023-02-25T04:53:02.176Z,77.20
2023-02-25T04:56:06.294Z,76.90
2023-02-25T04:59:11.302Z,77.10
2023-02-25T05:02:14.430Z,77.10
2023-02-25T05:05:18.423Z,77.20
2023-02-25T05:08:23.424Z,77.50
2023-02-25T05:11:27.468Z,77.50
2023-02-25T05:14:32.879Z,77.80
2023-02-25T05:17:36.814Z,77.80
2023-02-25T05:20:42.202Z,77.50
2023-02-25T05:23:47.823Z,77.50
2023-02-25T05:26:52.417Z,77.40
2023-02-25T05:29:56.067Z,77.20
2023-02-25T05:32:59.375Z,76.90
2023-02-25T05:36:06.124Z,76.70
2023-02-25T05:39:14.640Z,76.60
2023-02-25T05:42:17.634Z,76.60
2023-02-25T05:45:20.691Z,76.40
2023-02-25T05:48:24.432Z,76.30
2023-02-25T05:51:27.705Z,76.10
2023-02-25T05:54:32.077Z,75.70
2023-02-25T05:57:35.105Z,76.10
2023-02-25T06:00:38.451Z,76.30
2023-02-25T06:03:42.184Z,76.50
2023-02-25T06:06:51.801Z,76.60
2023-02-25T06:09:59.970Z,76.70
2023-02-25T06:13:02.924Z,76.90
2023-02-25T06:16:06.767Z,77.00
2023-02-25T06:19:11.605Z,76.80
2023-02-25T06:22:14.601Z,76.80
2023-02-25T06:25:19.520Z,77.40
2023-02-25T06:28:24.486Z,77.50
2023-02-25T06:31:27.885Z,77.60
2023-02-25T06:34:33.600Z,77.80
2023-02-25T06:37:36.738Z,77.70
2023-02-25T06:40:41.138Z,77.80
2023-02-25T06:43:44.509Z,77.80
2023-02-25T06:46:47.543Z,77.70
2023-02-25T06:49:50.499Z,77.50
2023-02-25T06:52:53.538Z,77.40
2023-02-25T06:55:59.978Z,77.60
2023-02-25T06:59:02.925Z,77.70
2023-02-25T07:02:05.981Z,77.80
2023-02-25T07:05:09.727Z,77.60
2023-02-25T07:08:12.695Z,77.70
2023-02-25T07:11:29.624Z,77.80
2023-02-25T07:14:32.634Z,77.70
2023-02-25T07:17:37.484Z,77.90
2023-02-25T07:20:40.958Z,77.90
2023-02-25T07:23:43.958Z,77.60
2023-02-25T07:26:48.375Z,77.80
2023-02-25T07:29:51.299Z,77.60
2023-02-25T07:32:54.384Z,77.40
2023-02-25T07:35:57.531Z,77.60
2023-02-25T07:39:01.920Z,77.40
2023-02-25T07:42:06.523Z,77.60
2023-02-25T07:45:11.802Z,77.30
2023-02-25T07:48:14.773Z,77.50
2023-02-25T07:51:20.178Z,77.60
2023-02-25T07:54:23.390Z,76.90
2023-02-25T07:57:28.848Z,77.20
2023-02-25T08:00:32.149Z,77.40
2023-02-25T08:03:35.364Z,77.00
2023-02-25T08:06:41.322Z,77.00
2023-02-25T08:09:44.656Z,76.60
2023-02-25T08:12:48.967Z,76.20
2023-02-25T08:15:51.969Z,76.20
2023-02-25T08:18:55.575Z,76.40
2023-02-25T08:21:58.566Z,75.90
2023-02-25T08:25:01.579Z,76.10
2023-02-25T08:28:06.239Z,76.50
2023-02-25T08:31:12.051Z,76.30
2023-02-25T08:34:15.252Z,75.50
2023-02-25T08:37:18.338Z,76.00
2023-02-25T08:40:21.842Z,76.20
2023-02-25T08:43:26.373Z,75.80
2023-02-25T08:46:31.309Z,76.00
2023-02-25T08:49:34.374Z,76.00
2023-02-25T08:52:37.557Z,75.70
2023-02-25T08:55:41.015Z,75.70
2023-02-25T08:58:46.052Z,75.60
2023-02-25T09:01:50.442Z,75.50
2023-02-25T09:04:53.494Z,75.80
2023-02-25T09:07:56.519Z,76.00
2023-02-25T09:10:59.491Z,76.50
2023-02-25T09:14:03.970Z,75.90
2023-02-25T09:17:07.598Z,76.20
2023-02-25T09:20:12.204Z,76.10
2023-02-25T09:23:17.578Z,75.90
2023-02-25T09:26:21.747Z,75.40
2023-02-25T09:29:26.260Z,76.10
2023-02-25T09:32:29.464Z,75.80
2023-02-25T09:35:32.773Z,75.90
2023-02-25T09:38:36.320Z,75.30
2023-02-25T09:41:47.792Z,75.10
2023-02-25T09:44:54.436Z,74.90
2023-02-25T09:48:01.033Z,73.80
2023-02-25T09:51:13.032Z,73.10
2023-02-25T09:54:23.301Z,73.00
2023-02-25T09:57:26.280Z,73.40
2023-02-25T10:00:34.903Z,73.40
2023-02-25T10:03:59.206Z,73.60
2023-02-25T10:07:09.546Z,73.20
2023-02-25T10:10:22.448Z,73.20
2023-02-25T10:13:36.306Z,73.20
2023-02-25T10:16:48.855Z,73.10
2023-02-25T10:20:13.478Z,73.00
2023-02-25T10:23:28.913Z,72.10
2023-02-25T10:26:39.072Z,71.40
2023-02-25T10:29:49.251Z,72.70
2023-02-25T10:32:54.328Z,72.30
2023-02-25T10:36:07.102Z,72.50
2023-02-25T10:39:12.124Z,73.20
2023-02-25T10:42:15.968Z,71.60
2023-02-25T10:45:25.252Z,72.30
2023-02-25T10:48:30.617Z,72.50
2023-02-25T10:51:33.596Z,71.50
2023-02-25T10:54:47.722Z,71.10
2023-02-25T10:57:51.035Z,71.40
2023-02-25T11:00:59.092Z,71.50
2023-02-25T11:04:11.933Z,71.20
2023-02-25T11:07:26.446Z,71.40
2023-02-25T11:10:29.509Z,69.30
2023-02-25T11:13:36.778Z,69.50
2023-02-25T11:16:42.019Z,69.90
2023-02-25T11:19:49.822Z,69.30
2023-02-25T11:22:54.894Z,68.30
2023-02-25T11:25:58.327Z,67.50
2023-02-25T11:29:04.016Z,68.70
2023-02-25T11:32:12.640Z,69.60
2023-02-25T11:35:21.762Z,70.10
2023-02-25T11:38:28.392Z,69.90
2023-02-25T11:41:33.132Z,70.30
2023-02-25T11:44:47.260Z,70.00
2023-02-25T11:47:50.466Z,71.00
2023-02-25T11:51:05.645Z,71.40
2023-02-25T11:54:28.946Z,71.10
2023-02-25T11:57:39.225Z,71.10
2023-02-25T12:00:50.088Z,70.30
2023-02-25T12:04:08.413Z,70.50
2023-02-25T12:08:00.014Z,70.00
2023-02-25T12:11:40.432Z,69.50
2023-02-25T12:15:23.571Z,70.30
2023-02-25T12:19:02.714Z,70.00
2023-02-25T12:22:24.192Z,70.20
2023-02-25T12:25:33.849Z,70.00
2023-02-25T12:29:18.789Z,70.90
2023-02-25T12:32:41.638Z,70.10
2023-02-25T12:35:54.627Z,69.30
2023-02-25T12:39:14.946Z,69.10
2023-02-25T12:42:39.232Z,68.40
2023-02-25T12:46:06.290Z,68.60
2023-02-25T12:49:36.894Z,68.30
2023-02-25T12:52:50.779Z,68.90
2023-02-25T12:56:19.747Z,69.60
2023-02-25T12:59:52.246Z,69.90
2023-02-25T13:03:15.373Z,69.90
2023-02-25T13:06:27.708Z,70.60
2023-02-25T13:09:50.963Z,71.30
2023-02-25T13:13:07.113Z,71.10
2023-02-25T13:16:24.965Z,71.20
2023-02-25T13:19:55.753Z,71.70
2023-02-25T13:23:12.949Z,73.00
2023-02-25T13:26:39.294Z,72.90
2023-02-25T13:30:10.055Z,73.30
2023-02-25T13:33:46.064Z,73.40
2023-02-25T13:37:09.292Z,73.50
2023-02-25T13:40:42.027Z,73.10
2023-02-25T13:44:01.857Z,72.70
2023-02-25T13:47:24.100Z,72.10
2023-02-25T13:50:42.475Z,72.30
2023-02-25T13:54:02.516Z,72.60
2023-02-25T13:57:28.654Z,73.10
2023-02-25T14:01:04.664Z,72.70
2023-02-25T14:04:44.434Z,73.00
2023-02-25T14:08:09.017Z,72.30
2023-02-25T14:11:30.273Z,72.10
2023-02-25T14:15:06.048Z,72.70
2023-02-25T14:18:32.068Z,73.40
2023-02-25T14:22:10.889Z,73.50
2023-02-25T14:25:23.692Z,73.30
2023-02-25T14:28:34.899Z,72.60
2023-02-25T14:31:54.206Z,72.30
2023-02-25T14:35:15.988Z,71.00
2023-02-25T14:38:32.028Z,70.90
2023-02-25T14:41:48.054Z,70.90
2023-02-25T14:44:58.419Z,71.10
2023-02-25T14:48:05.941Z,71.00
2023-02-25T14:51:40.040Z,71.30
2023-02-25T14:55:26.733Z,71.30
2023-02-25T14:58:50.958Z,69.70
2023-02-25T15:02:48.488Z,70.30
2023-02-25T15:06:19.956Z,70.00
2023-02-25T15:09:42.096Z,69.10
2023-02-25T15:13:04.510Z,69.00
2023-02-25T15:16:50.196Z,69.40
2023-02-25T15:20:15.402Z,69.10
2023-02-25T15:23:20.416Z,68.80
2023-02-25T15:26:27.535Z,68.70
2023-02-25T15:29:56.530Z,68.40
2023-02-25T15:33:14.673Z,68.10
2023-02-25T15:36:26.987Z,67.90
2023-02-25T15:39:49.058Z,67.00
2023-02-25T15:42:54.257Z,66.50
2023-02-25T15:46:37.010Z,65.60
2023-02-25T15:49:47.682Z,66.00
2023-02-25T15:52:53.677Z,66.50
2023-02-25T15:56:31.219Z,66.80
2023-02-25T15:59:48.187Z,66.20
2023-02-25T16:03:03.687Z,66.90
2023-02-25T16:06:14.800Z,67.10
2023-02-25T16:09:19.096Z,66.90
2023-02-25T16:12:23.898Z,67.50
2023-02-25T16:15:32.471Z,68.30
2023-02-25T16:18:42.595Z,69.30
2023-02-25T16:21:49.049Z,70.80
2023-02-25T16:24:54.146Z,71.90
2023-02-25T16:28:05.746Z,72.20
2023-02-25T16:31:18.698Z,72.90
2023-02-25T16:34:28.023Z,73.00
2023-02-25T16:37:37.258Z,72.60
2023-02-25T16:40:41.957Z,72.80
2023-02-25T16:43:45.764Z,72.70
2023-02-25T16:46:52.599Z,72.30
2023-02-25T16:49:59.208Z,72.50
2023-02-25T16:53:04.970Z,73.00
2023-02-25T16:56:14.654Z,72.70
2023-02-25T16:59:20.145Z,73.10
2023-02-25T17:02:25.324Z,72.80
2023-02-25T17:05:32.379Z,72.60
2023-02-25T17:08:36.498Z,72.30
2023-02-25T17:11:40.193Z,72.10
2023-02-25T17:14:46.049Z,72.40
2023-02-25T17:17:53.383Z,71.90
2023-02-25T17:21:03.179Z,72.00
2023-02-25T17:24:09.834Z,72.00
2023-02-25T17:27:12.947Z,71.80
2023-02-25T17:30:33.915Z,71.80
2023-02-25T17:33:46.567Z,71.70
2023-02-25T17:36:52.536Z,72.00
2023-02-25T17:39:55.813Z,71.90
2023-02-25T17:43:22.154Z,71.60
2023-02-25T17:46:30.421Z,71.60
2023-02-25T17:49:35.678Z,71.50
2023-02-25T17:52:41.321Z,72.10
2023-02-25T17:55:46.332Z,71.90
2023-02-25T17:58:50.261Z,72.30
2023-02-25T18:01:55.486Z,72.50
2023-02-25T18:05:31.202Z,72.70
2023-02-25T18:08:56.182Z,73.00
2023-02-25T18:12:01.366Z,73.00
2023-02-25T18:15:15.571Z,73.30
2023-02-25T18:18:22.900Z,73.50
2023-02-25T18:21:26.154Z,73.90
2023-02-25T18:24:33.305Z,74.20
2023-02-25T18:27:37.856Z,74.20
2023-02-25T18:30:41.430Z,74.50
2023-02-25T18:33:46.050Z,75.10
2023-02-25T18:36:49.092Z,75.60
2023-02-25T18:39:53.696Z,75.70
2023-02-25T18:42:57.165Z,75.80
2023-02-25T18:46:00.186Z,75.60
2023-02-25T18:49:03.194Z,75.20
2023-02-25T18:52:09.478Z,75.40
2023-02-25T18:55:19.306Z,75.30
2023-02-25T18:58:22.969Z,75.50
2023-02-25T19:01:29.488Z,75.40
2023-02-25T19:04:32.500Z,75.00
2023-02-25T19:07:37.165Z,75.00
2023-02-25T19:10:41.643Z,74.80
2023-02-25T19:13:44.796Z,74.80
2023-02-25T19:16:47.716Z,74.70
2023-02-25T19:19:52.276Z,74.90
2023-02-25T19:22:55.411Z,74.30
2023-02-25T19:26:01.353Z,74.30
2023-02-25T19:29:04.695Z,74.40
2023-02-25T19:32:07.842Z,74.40
2023-02-25T19:35:11.348Z,74.00
2023-02-25T19:38:16.101Z,73.40
2023-02-25T19:41:20.502Z,73.00
2023-02-25T19:44:23.456Z,73.10
2023-02-25T19:47:26.882Z,72.90
2023-02-25T19:50:32.054Z,72.60
2023-02-25T19:53:36.231Z,72.70
2023-02-25T19:56:40.565Z,72.70
2023-02-25T19:59:43.647Z,72.40
2023-02-25T20:02:48.059Z,72.30
2023-02-25T20:05:52.219Z,72.20
2023-02-25T20:08:55.793Z,72.50
2023-02-25T20:12:00.326Z,72.50
2023-02-25T20:15:03.239Z,72.20
2023-02-25T20:18:06.683Z,72.30
2023-02-25T20:21:09.670Z,72.10
2023-02-25T20:24:15.610Z,72.50
2023-02-25T20:27:19.971Z,72.60
2023-02-25T20:30:23.618Z,72.50
2023-02-25T20:33:27.960Z,72.70
2023-02-25T20:36:35.454Z,72.90
2023-02-25T20:39:54.384Z,73.40
2023-02-25T20:42:59.034Z,73.80
2023-02-25T20:46:02.309Z,73.80
2023-02-25T20:49:05.891Z,74.40
2023-02-25T20:52:10.786Z,74.70
2023-02-25T20:55:14.990Z,74.90
2023-02-25T20:58:19.690Z,75.20
2023-02-25T21:01:23.279Z,75.40
2023-02-25T21:04:26.440Z,75.80
2023-02-25T21:07:29.672Z,75.90
2023-02-25T21:10:32.675Z,75.60
2023-02-25T21:13:37.196Z,75.70
2023-02-25T21:16:40.213Z,75.40
2023-02-25T21:19:43.628Z,75.30
2023-02-25T21:22:48.650Z,75.00
2023-02-25T21:25:51.639Z,75.30
2023-02-25T21:28:56.062Z,75.50
2023-02-25T21:31:59.035Z,75.80
2023-02-25T21:35:02.030Z,76.20
2023-02-25T21:38:05.377Z,76.10
2023-02-25T21:41:10.285Z,76.20
2023-02-25T21:44:14.964Z,76.50
2023-02-25T21:47:18.199Z,76.70
2023-02-25T21:50:21.151Z,76.90
2023-02-25T21:53:26.693Z,76.90
2023-02-25T21:56:31.005Z,77.40
2023-02-25T21:59:35.354Z,77.50
2023-02-25T22:02:38.764Z,77.50
2023-02-25T22:05:45.833Z,77.50
2023-02-25T22:08:48.883Z,77.60
2023-02-25T22:11:51.866Z,77.50
2023-02-25T22:14:56.118Z,77.50
2023-02-25T22:17:59.159Z,77.30
2023-02-25T22:21:11.972Z,77.00
2023-02-25T22:24:15.358Z,77.20
2023-02-25T22:27:18.259Z,77.20
2023-02-25T22:30:22.814Z,77.00
2023-02-25T22:33:25.945Z,77.00
2023-02-25T22:36:29.639Z,77.00
2023-02-25T22:39:32.586Z,77.10
2023-02-25T22:42:35.558Z,77.10
2023-02-25T22:45:39.899Z,77.30
2023-02-25T22:48:44.280Z,77.30
2023-02-25T22:51:48.500Z,77.20
2023-02-25T22:54:52.751Z,77.10
2023-02-25T22:57:55.716Z,77.20
2023-02-25T23:01:00.794Z,77.00
2023-02-25T23:04:03.790Z,77.10
2023-02-25T23:07:06.786Z,77.40
2023-02-25T23:10:11.192Z,77.30
2023-02-25T23:13:14.825Z,77.10
2023-02-25T23:16:23.668Z,77.30
2023-02-25T23:19:28.430Z,77.20
2023-02-25T23:22:33.696Z,77.30
2023-02-25T23:25:40.735Z,77.30
2023-02-25T23:28:43.735Z,77.20
2023-02-25T23:31:49.803Z,77.10
2023-02-25T23:34:52.950Z,77.00
2023-02-25T23:37:55.955Z,77.00
2023-02-25T23:41:02.016Z,76.90
2023-02-25T23:44:06.743Z,76.60
2023-02-25T23:47:11.116Z,76.50
2023-02-25T23:50:17.561Z,76.60
2023-02-25T23:53:20.628Z,76.70
2023-02-25T23:56:24.547Z,76.50
2023-02-25T23:59:28.032Z,76.60
